Terminal Aerodrome Forecast
Issued by NWS

Home | Current Version | Previous Version | Text Only | Print | Product List | Glossary On
Versions: 1 2 3 4 5 6 7 8 9 10 11 12 13 14 15 16
000
FTUS44 KMAF 031127
TAFCNM
TAF
KCNM 031127Z 0312/0412 33013KT P6SM OVC012
      TEMPO 0312/0316 4SM -RA BR OVC006
     FM031700 35010KT 5SM -DZ BR OVC012
      TEMPO 0322/0402 2SM -RA OVC006=

USA.gov is the U.S. government's official web portal to all federal, state and local government web resources and services.